createdAt,value
2017-03-08T08:08:13.727Z,200
2017-03-08T08:08:54.068Z,200
2017-03-08T08:09:34.457Z,205
2017-03-08T08:10:14.841Z,210
2017-03-08T08:10:55.264Z,210
2017-03-08T08:11:35.676Z,205
2017-03-08T08:12:16.060Z,205
2017-03-08T08:14:53.992Z,210
2017-03-08T08:15:34.412Z,210
2017-03-08T08:16:14.819Z,210
2017-03-08T08:18:52.949Z,210
2017-03-08T08:19:33.310Z,210
2017-03-08T08:20:13.719Z,210
2017-03-08T08:22:51.772Z,210
2017-03-08T08:23:32.266Z,215
2017-03-08T08:24:12.821Z,215
2017-03-08T08:24:53.223Z,215
2017-03-08T08:25:33.638Z,220
2017-03-08T08:26:14.106Z,220
2017-03-08T08:26:54.559Z,225
2017-03-08T08:27:35.177Z,225
2017-03-08T08:28:15.636Z,225
2017-03-08T08:28:56.035Z,225
2017-03-08T08:29:36.548Z,230
2017-03-08T08:30:17.176Z,230
2017-03-08T08:30:57.742Z,230
2017-03-08T08:31:38.513Z,230
2017-03-08T08:32:18.989Z,230
2017-03-08T08:32:59.421Z,225
2017-03-08T08:33:40.053Z,225
2017-03-08T08:34:21.360Z,225
2017-03-08T08:35:01.803Z,225
2017-03-08T08:35:42.216Z,225
2017-03-08T08:36:22.682Z,235
2017-03-08T08:37:03.238Z,230
2017-03-08T08:37:43.731Z,240
2017-03-08T08:38:24.158Z,240
2017-03-08T08:39:04.691Z,250
2017-03-08T08:39:45.241Z,255
2017-03-08T08:40:26.131Z,255
2017-03-08T08:41:06.390Z,255
2017-03-08T08:41:46.809Z,260
2017-03-08T08:42:27.758Z,270
2017-03-08T08:43:08.199Z,275
2017-03-08T08:43:48.705Z,280
2017-03-08T08:44:29.262Z,290
2017-03-08T08:45:09.607Z,290
2017-03-08T08:45:50.054Z,290
2017-03-08T08:46:30.508Z,295
2017-03-08T08:47:10.947Z,290
2017-03-08T08:47:51.349Z,290
2017-03-08T08:48:31.812Z,290
2017-03-08T08:49:12.206Z,295
2017-03-08T08:49:52.701Z,295
2017-03-08T08:50:33.072Z,295
2017-03-08T08:51:13.529Z,295
2017-03-08T08:51:53.983Z,290
2017-03-08T08:52:34.379Z,290
2017-03-08T08:53:14.799Z,280
2017-03-08T08:53:55.241Z,275
2017-03-08T08:54:35.904Z,275
2017-03-08T08:55:16.260Z,275
2017-03-08T08:55:56.679Z,280
2017-03-08T08:56:37.076Z,275
2017-03-08T08:57:17.471Z,275
2017-03-08T08:57:57.893Z,280
2017-03-08T08:58:38.342Z,275
2017-03-08T08:59:18.788Z,290
2017-03-08T08:59:59.559Z,285
2017-03-08T09:00:40.006Z,290
2017-03-08T09:01:20.493Z,300
2017-03-08T09:02:00.875Z,290
2017-03-08T09:02:41.250Z,300
2017-03-08T09:03:21.718Z,315
2017-03-08T09:04:02.127Z,360
2017-03-08T09:06:14.769Z,335
2017-03-08T09:06:55.200Z,310
2017-03-08T09:07:35.664Z,340
2017-03-08T09:08:16.007Z,335
2017-03-08T09:08:56.543Z,335
2017-03-08T09:09:36.936Z,355
2017-03-08T09:10:17.361Z,360
2017-03-08T09:10:57.860Z,360
2017-03-08T09:11:38.271Z,360
2017-03-08T09:12:18.778Z,355
2017-03-08T09:12:59.162Z,330
2017-03-08T09:13:39.601Z,310
2017-03-08T09:14:20.098Z,310
2017-03-08T09:15:00.483Z,335
2017-03-08T09:15:40.886Z,315
2017-03-08T09:16:21.327Z,360
2017-03-08T09:17:01.776Z,365
2017-03-08T09:17:42.253Z,360
2017-03-08T09:18:22.854Z,365
2017-03-08T09:19:03.261Z,375
2017-03-08T09:19:43.782Z,365
2017-03-08T09:20:24.251Z,365
2017-03-08T09:21:04.732Z,370
2017-03-08T09:21:45.191Z,365
2017-03-08T09:22:25.678Z,365
2017-03-08T09:23:06.062Z,375
2017-03-08T09:23:46.470Z,365
2017-03-08T09:24:26.883Z,385
2017-03-08T09:25:07.293Z,395
2017-03-08T09:25:47.692Z,450
2017-03-08T09:26:28.144Z,500
2017-03-08T09:27:08.573Z,475
2017-03-08T09:27:49.029Z,535
2017-03-08T09:28:29.413Z,525
2017-03-08T09:29:09.838Z,400
2017-03-08T09:29:50.312Z,395
2017-03-08T09:30:30.751Z,395
2017-03-08T09:31:11.227Z,395
2017-03-08T09:31:51.666Z,380
2017-03-08T09:32:32.146Z,335
2017-03-08T09:33:12.767Z,360
2017-03-08T09:33:53.463Z,350
2017-03-08T09:34:34.082Z,370
2017-03-08T09:35:14.440Z,365
2017-03-08T09:35:55.010Z,365
2017-03-08T09:36:35.396Z,360
2017-03-08T09:37:16.032Z,350
2017-03-08T09:37:56.477Z,335
2017-03-08T09:38:36.858Z,330
2017-03-08T09:39:17.313Z,320
2017-03-08T09:39:57.671Z,315
2017-03-08T09:40:38.082Z,305
2017-03-08T09:41:18.493Z,310
2017-03-08T09:41:59.023Z,310
2017-03-08T09:42:39.510Z,290
2017-03-08T09:43:19.950Z,285
2017-03-08T09:44:00.405Z,280
2017-03-08T09:44:40.854Z,290
2017-03-08T09:45:21.290Z,290
2017-03-08T09:47:54.291Z,310
2017-03-08T09:48:34.757Z,330
2017-03-08T09:49:15.199Z,340
2017-03-08T09:49:55.621Z,350
2017-03-08T09:50:35.996Z,360
2017-03-08T09:51:16.398Z,375
2017-03-08T09:51:56.881Z,390
2017-03-08T09:52:37.342Z,420
2017-03-08T09:53:17.611Z,445
2017-03-08T09:53:58.066Z,455
2017-03-08T09:54:38.645Z,475
2017-03-08T09:55:19.102Z,475
2017-03-08T09:55:59.547Z,480
2017-03-08T09:56:40.159Z,515
2017-03-08T09:57:20.559Z,530
2017-03-08T09:58:01.086Z,600
2017-03-08T09:58:41.487Z,625
2017-03-08T09:59:22.004Z,660
2017-03-08T10:00:02.450Z,670
2017-03-08T10:00:42.994Z,685
2017-03-08T10:01:23.477Z,695
2017-03-08T10:02:03.937Z,645
2017-03-08T10:02:44.427Z,585
2017-03-08T10:03:24.899Z,400
2017-03-08T10:04:05.332Z,570
2017-03-08T10:04:45.823Z,545
2017-03-08T10:05:26.278Z,540
2017-03-08T10:06:06.878Z,515
2017-03-08T10:06:47.364Z,510
2017-03-08T10:07:27.871Z,505
2017-03-08T10:08:08.401Z,515
2017-03-08T10:08:48.795Z,510
2017-03-08T10:09:29.244Z,495
2017-03-08T10:10:09.799Z,500
2017-03-08T10:10:50.296Z,490
2017-03-08T10:11:30.792Z,480
2017-03-08T10:12:11.225Z,470
2017-03-08T10:12:51.702Z,475
2017-03-08T10:13:32.187Z,470
2017-03-08T10:14:12.661Z,485
2017-03-08T10:14:53.104Z,535
2017-03-08T10:15:33.600Z,490
2017-03-08T10:18:11.778Z,535
2017-03-08T10:18:52.301Z,530
2017-03-08T10:19:32.752Z,565
2017-03-08T10:20:13.280Z,725
2017-03-08T10:20:53.751Z,965
2017-03-08T10:21:34.247Z,1210
2017-03-08T10:22:14.706Z,1415
2017-03-08T10:22:55.190Z,1505
2017-03-08T10:23:35.736Z,1325
2017-03-08T10:24:16.331Z,1160
2017-03-08T10:24:56.838Z,1160
2017-03-08T10:25:37.303Z,1015
2017-03-08T10:26:17.734Z,930
2017-03-08T10:26:58.280Z,795
2017-03-08T10:27:38.733Z,750
2017-03-08T10:28:19.290Z,625
2017-03-08T10:28:59.728Z,600
2017-03-08T10:29:40.178Z,600
2017-03-08T10:30:20.616Z,600
2017-03-08T10:31:01.109Z,610
2017-03-08T10:31:41.566Z,620
2017-03-08T10:32:22.000Z,615
2017-03-08T10:33:02.474Z,605
2017-03-08T10:33:43.009Z,605
2017-03-08T10:34:23.465Z,590
2017-03-08T10:35:03.947Z,585
2017-03-08T10:35:44.350Z,580
2017-03-08T10:36:24.875Z,575
2017-03-08T10:37:05.441Z,565
2017-03-08T10:37:46.106Z,555
2017-03-08T10:38:26.578Z,545
2017-03-08T10:39:07.035Z,530
2017-03-08T10:39:47.603Z,510
2017-03-08T10:40:28.038Z,495
2017-03-08T10:41:08.505Z,480
2017-03-08T10:41:48.961Z,475
2017-03-08T10:42:29.423Z,470
2017-03-08T10:43:09.884Z,470
2017-03-08T10:45:37.894Z,455
2017-03-08T10:46:18.683Z,455
2017-03-08T10:46:59.157Z,460
2017-03-08T10:47:39.581Z,470
2017-03-08T10:48:20.083Z,485
2017-03-08T10:49:00.504Z,490
2017-03-08T10:49:41.026Z,500
2017-03-08T10:50:21.455Z,510
2017-03-08T10:51:02.352Z,495
2017-03-08T10:51:43.119Z,530
2017-03-08T10:52:23.584Z,550
2017-03-08T10:53:04.013Z,540
2017-03-08T10:53:44.492Z,540
2017-03-08T10:54:25.063Z,505
2017-03-08T10:55:05.541Z,480
2017-03-08T10:55:46.029Z,475
2017-03-08T10:56:26.500Z,485
2017-03-08T10:57:06.959Z,495
2017-03-08T10:59:40.121Z,505
2017-03-08T11:00:20.691Z,490
2017-03-08T11:01:01.193Z,480
2017-03-08T11:01:41.748Z,470
2017-03-08T11:02:22.285Z,460
2017-03-08T11:03:02.767Z,455
2017-03-08T11:03:43.302Z,440
2017-03-08T11:04:23.738Z,425
2017-03-08T11:05:04.403Z,405
2017-03-08T11:05:44.874Z,390
2017-03-08T11:06:25.321Z,365
2017-03-08T11:07:05.828Z,350
2017-03-08T11:07:46.290Z,340
2017-03-08T11:08:26.807Z,330
2017-03-08T11:09:07.270Z,330
2017-03-08T11:09:47.726Z,320
2017-03-08T11:10:28.184Z,315
2017-03-08T11:11:08.577Z,310
2017-03-08T11:11:48.984Z,305
2017-03-08T11:14:06.753Z,280
2017-03-08T11:14:47.221Z,275
2017-03-08T11:15:27.622Z,265
2017-03-08T11:16:07.984Z,260
2017-03-08T11:16:48.390Z,255
2017-03-08T11:17:28.817Z,250
2017-03-08T11:18:09.252Z,245
2017-03-08T11:18:49.655Z,240
2017-03-08T11:19:30.069Z,235
2017-03-08T11:20:10.485Z,230
2017-03-08T11:20:50.931Z,225
2017-03-08T11:21:31.337Z,225
2017-03-08T11:22:11.740Z,225
2017-03-08T11:22:52.172Z,225
2017-03-08T11:23:32.614Z,230
2017-03-08T11:24:13.056Z,225
2017-03-08T11:24:53.595Z,230
2017-03-08T11:25:34.029Z,225
2017-03-08T11:26:14.487Z,230
2017-03-08T11:26:54.898Z,230
2017-03-08T11:27:35.309Z,235
2017-03-08T11:28:15.714Z,240
2017-03-08T11:28:56.163Z,245
2017-03-08T11:29:36.656Z,255
2017-03-08T11:30:17.070Z,255
2017-03-08T11:30:57.528Z,260
2017-03-08T11:31:37.945Z,265
2017-03-08T11:32:18.349Z,270
2017-03-08T11:32:58.808Z,270
2017-03-08T11:33:39.212Z,270
2017-03-08T11:34:19.596Z,270
2017-03-08T11:35:00.077Z,270
2017-03-08T11:35:40.454Z,270
2017-03-08T11:36:20.859Z,265
2017-03-08T11:37:01.283Z,265
2017-03-08T11:37:41.673Z,260
2017-03-08T11:38:22.115Z,250
2017-03-08T11:39:02.492Z,245
2017-03-08T11:39:42.948Z,235
2017-03-08T11:40:23.404Z,230
2017-03-08T11:42:56.345Z,215
2017-03-08T11:43:36.771Z,210
2017-03-08T11:44:17.229Z,205
2017-03-08T11:46:34.976Z,195
2017-03-08T11:47:15.399Z,195
2017-03-08T11:47:55.763Z,190
2017-03-08T11:48:36.228Z,185
2017-03-08T11:49:16.662Z,185
2017-03-08T11:49:57.081Z,180
2017-03-08T11:50:38.575Z,180
2017-03-08T11:51:19.852Z,180
2017-03-08T11:52:00.148Z,185
2017-03-08T11:52:40.559Z,185
2017-03-08T11:53:20.971Z,190
2017-03-08T11:54:01.379Z,195
2017-03-08T11:54:41.779Z,200
2017-03-08T11:55:22.218Z,205
2017-03-08T11:56:02.599Z,205
2017-03-08T11:56:43.045Z,210
2017-03-08T11:57:23.469Z,220
2017-03-08T11:58:03.897Z,225
2017-03-08T11:58:44.388Z,230
2017-03-08T11:59:24.948Z,235
2017-03-08T12:00:05.467Z,240
2017-03-08T12:00:46.143Z,250
2017-03-08T12:01:26.823Z,265
2017-03-08T12:02:07.528Z,275
2017-03-08T12:02:48.042Z,290
2017-03-08T12:03:28.632Z,300
2017-03-08T12:04:09.163Z,310
2017-03-08T12:04:49.673Z,310
2017-03-08T12:05:30.136Z,310
2017-03-08T12:06:10.531Z,305
2017-03-08T12:06:51.001Z,300
2017-03-08T12:07:31.507Z,295
2017-03-08T12:08:11.980Z,290
2017-03-08T12:08:52.479Z,285
2017-03-08T12:09:33.169Z,285
2017-03-08T12:10:13.781Z,285
2017-03-08T12:10:54.240Z,285
2017-03-08T12:11:34.799Z,290
2017-03-08T12:12:15.268Z,295
2017-03-08T12:12:55.887Z,300
2017-03-08T12:13:36.433Z,305
2017-03-08T12:14:16.864Z,310
2017-03-08T12:14:57.327Z,320
2017-03-08T12:15:37.755Z,320
2017-03-08T12:16:18.426Z,310
2017-03-08T12:16:58.907Z,310
2017-03-08T12:17:39.542Z,300
2017-03-08T12:18:20.025Z,295
2017-03-08T12:19:00.516Z,295
2017-03-08T12:19:41.066Z,290
2017-03-08T12:20:21.541Z,290
2017-03-08T12:21:02.092Z,295
2017-03-08T12:21:42.601Z,300
2017-03-08T12:22:23.128Z,305
2017-03-08T12:23:03.631Z,315
2017-03-08T12:23:44.122Z,315
2017-03-08T12:24:24.655Z,320
2017-03-08T12:25:05.061Z,315
2017-03-08T12:25:45.562Z,310
2017-03-08T12:26:26.019Z,300
2017-03-08T12:27:06.511Z,290
2017-03-08T12:27:47.081Z,275
2017-03-08T12:28:27.506Z,260
2017-03-08T12:29:07.944Z,245
2017-03-08T12:29:48.457Z,230
2017-03-08T12:30:29.069Z,220
2017-03-08T12:31:09.545Z,210
2017-03-08T12:31:50.088Z,205
2017-03-08T12:32:30.569Z,200
2017-03-08T12:33:11.007Z,195
2017-03-08T12:33:51.536Z,190
2017-03-08T12:34:31.986Z,180
2017-03-08T12:35:12.529Z,175
2017-03-08T12:35:53.031Z,170
2017-03-08T12:36:33.627Z,160
2017-03-08T12:37:14.071Z,155
2017-03-08T12:37:54.588Z,155
2017-03-08T12:38:35.166Z,150
2017-03-08T12:39:15.569Z,145
2017-03-08T12:39:56.088Z,150
2017-03-08T12:40:36.580Z,145
2017-03-08T12:43:10.313Z,125
2017-03-08T12:43:50.789Z,135
2017-03-08T12:44:31.209Z,125
2017-03-08T12:45:11.697Z,125
2017-03-08T12:45:52.590Z,120
2017-03-08T12:46:33.329Z,120
2017-03-08T12:47:13.837Z,120
2017-03-08T12:47:54.478Z,120
2017-03-08T12:48:34.932Z,115
2017-03-08T12:49:15.381Z,115
2017-03-08T12:49:55.834Z,110
2017-03-08T12:50:36.283Z,110
2017-03-08T12:51:16.725Z,105
2017-03-08T12:51:57.165Z,100
2017-03-08T12:52:37.670Z,100
2017-03-08T12:53:18.143Z,100
2017-03-08T12:53:58.584Z,105
2017-03-08T12:54:39.095Z,105
2017-03-08T12:57:17.741Z,105
2017-03-08T12:57:59.088Z,110
2017-03-08T12:58:40.756Z,115
2017-03-08T12:59:21.388Z,120
2017-03-08T13:00:01.872Z,125
2017-03-08T13:00:42.520Z,125
2017-03-08T13:01:22.959Z,130
2017-03-08T13:02:03.399Z,135
2017-03-08T13:02:43.848Z,135
2017-03-08T13:03:24.414Z,135
2017-03-08T13:04:04.939Z,140
2017-03-08T13:04:45.405Z,145
2017-03-08T13:05:25.984Z,145
2017-03-08T13:06:06.441Z,140
2017-03-08T13:06:46.954Z,145
2017-03-08T13:07:27.385Z,150
2017-03-08T13:08:07.832Z,145
2017-03-08T13:08:48.275Z,140
2017-03-08T13:09:28.707Z,135
2017-03-08T13:11:41.425Z,130
2017-03-08T13:12:21.870Z,135
2017-03-08T13:13:02.390Z,135
2017-03-08T13:13:42.884Z,135
2017-03-08T13:14:23.343Z,130
2017-03-08T13:15:04.496Z,130
2017-03-08T13:15:44.898Z,130
2017-03-08T13:16:26.090Z,130
2017-03-08T13:17:06.550Z,130
2017-03-08T13:17:47.045Z,130
2017-03-08T13:18:27.547Z,125
2017-03-08T13:19:08.114Z,130
2017-03-08T13:19:48.631Z,130
2017-03-08T13:20:29.156Z,135
2017-03-08T13:21:09.622Z,135
2017-03-08T13:21:50.041Z,140
2017-03-08T13:22:30.560Z,140
2017-03-08T13:23:11.009Z,140
2017-03-08T13:23:51.443Z,140
2017-03-08T13:24:31.904Z,135
2017-03-08T13:25:12.478Z,140
2017-03-08T13:25:52.931Z,135
2017-03-08T13:26:33.460Z,135
2017-03-08T13:27:13.972Z,130
2017-03-08T13:27:54.406Z,130
2017-03-08T13:28:34.866Z,125
2017-03-08T13:31:07.956Z,115
2017-03-08T13:31:48.453Z,120
2017-03-08T13:32:29.017Z,120
2017-03-08T13:33:09.525Z,120
2017-03-08T13:33:51.762Z,115
2017-03-08T13:34:33.968Z,115
2017-03-08T13:35:16.033Z,115
2017-03-08T13:35:56.843Z,115
2017-03-08T13:36:37.456Z,115
2017-03-08T13:37:18.078Z,110
2017-03-08T13:37:58.486Z,110
2017-03-08T13:38:38.893Z,110
2017-03-08T13:39:19.355Z,110
2017-03-08T13:39:59.865Z,110
2017-03-08T13:40:40.299Z,115
2017-03-08T13:41:20.821Z,120
2017-03-08T13:42:01.332Z,120
2017-03-08T13:42:41.788Z,120
2017-03-08T13:43:22.240Z,120
2017-03-08T13:44:02.715Z,120
2017-03-08T13:44:43.340Z,120
2017-03-08T13:45:23.859Z,115
2017-03-08T13:46:04.399Z,115
2017-03-08T13:46:45.011Z,115
2017-03-08T13:47:25.472Z,120
2017-03-08T13:48:06.671Z,120
2017-03-08T13:48:47.189Z,120
2017-03-08T13:49:27.654Z,125
2017-03-08T13:50:08.264Z,125
2017-03-08T13:50:48.872Z,130
2017-03-08T13:51:29.400Z,130
2017-03-08T13:52:10.247Z,130
2017-03-08T13:52:50.601Z,130
2017-03-08T13:53:31.134Z,130
2017-03-08T13:54:11.678Z,135
2017-03-08T13:54:53.868Z,135
2017-03-08T13:55:34.366Z,135
2017-03-08T13:56:14.999Z,130
2017-03-08T13:56:55.500Z,130
2017-03-08T13:57:36.015Z,125
2017-03-08T13:58:16.483Z,125
2017-03-08T13:58:57.334Z,125
2017-03-08T13:59:37.940Z,120
2017-03-08T14:00:18.529Z,120
2017-03-08T14:00:58.956Z,115
2017-03-08T14:01:39.442Z,115
2017-03-08T14:02:19.987Z,110
2017-03-08T14:03:00.533Z,110
2017-03-08T14:03:41.001Z,105
2017-03-08T14:04:21.506Z,105
2017-03-08T14:05:01.982Z,105
2017-03-08T14:05:42.617Z,105
2017-03-08T14:06:23.331Z,105
2017-03-08T14:07:03.823Z,100
2017-03-08T14:07:44.435Z,100
2017-03-08T14:08:24.919Z,95
2017-03-08T14:09:05.327Z,95
2017-03-08T14:09:45.999Z,90
2017-03-08T14:10:26.420Z,90
2017-03-08T14:11:06.968Z,90
2017-03-08T14:11:47.378Z,90
2017-03-08T14:12:27.933Z,85
2017-03-08T14:13:08.527Z,85
2017-03-08T14:13:49.054Z,85
2017-03-08T14:14:29.668Z,85
2017-03-08T14:17:07.882Z,85
2017-03-08T14:17:48.231Z,90
2017-03-08T14:18:28.743Z,90
2017-03-08T14:19:09.304Z,95
2017-03-08T14:19:49.813Z,95
2017-03-08T14:20:30.321Z,95
2017-03-08T14:21:10.834Z,100
2017-03-08T14:21:51.418Z,100
2017-03-08T14:22:31.937Z,105
2017-03-08T14:23:12.423Z,105
2017-03-08T14:23:52.890Z,110
2017-03-08T14:24:33.480Z,110
2017-03-08T14:25:14.151Z,110
2017-03-08T14:25:54.632Z,110
2017-03-08T14:26:35.628Z,110
2017-03-08T14:27:16.156Z,110
2017-03-08T14:27:56.627Z,110
2017-03-08T14:28:37.125Z,105
2017-03-08T14:29:17.850Z,105
2017-03-08T14:29:58.174Z,100
2017-03-08T14:30:38.914Z,100
2017-03-08T14:31:19.380Z,100
2017-03-08T14:31:59.927Z,100
2017-03-08T14:32:40.484Z,100
2017-03-08T14:33:21.080Z,100
2017-03-08T14:34:01.729Z,105
2017-03-08T14:34:42.194Z,105
2017-03-08T14:35:22.752Z,105
2017-03-08T14:37:35.542Z,110
2017-03-08T14:38:16.015Z,110
2017-03-08T14:38:56.476Z,110
2017-03-08T14:39:36.906Z,110
2017-03-08T14:40:17.420Z,105
2017-03-08T14:40:57.891Z,105
2017-03-08T14:41:40.190Z,100
2017-03-08T14:42:20.661Z,95
2017-03-08T14:43:01.472Z,90
2017-03-08T14:43:43.862Z,85
2017-03-08T14:44:24.287Z,85
2017-03-08T14:45:04.847Z,85
2017-03-08T14:45:45.701Z,85
2017-03-08T14:46:26.923Z,90
2017-03-08T14:47:08.049Z,95
2017-03-08T14:47:49.234Z,100
2017-03-08T14:48:29.797Z,100
2017-03-08T14:49:10.619Z,100
2017-03-08T14:49:51.157Z,105
2017-03-08T14:50:31.738Z,110
2017-03-08T14:51:12.265Z,115
2017-03-08T14:53:48.579Z,130
2017-03-08T14:54:29.059Z,130
2017-03-08T14:55:09.796Z,130
2017-03-08T14:55:50.248Z,130
2017-03-08T14:56:30.698Z,130
2017-03-08T14:57:11.180Z,130
2017-03-08T14:57:51.877Z,130
2017-03-08T14:58:32.492Z,130
2017-03-08T14:59:12.874Z,125
2017-03-08T14:59:53.955Z,125
2017-03-08T15:00:37.070Z,120
2017-03-08T15:01:20.598Z,120
2017-03-08T15:02:00.179Z,115
2017-03-08T15:02:40.677Z,115
2017-03-08T15:03:21.253Z,115
2017-03-08T15:04:01.607Z,115
2017-03-08T15:04:42.106Z,115
2017-03-08T15:05:22.512Z,105
2017-03-08T15:06:03.013Z,100
2017-03-08T15:06:43.437Z,100
2017-03-08T15:07:23.950Z,95
2017-03-08T15:08:05.307Z,95
2017-03-08T15:08:45.840Z,90
2017-03-08T15:09:26.298Z,95
2017-03-08T15:10:06.866Z,100
2017-03-08T15:10:47.428Z,100
2017-03-08T15:11:27.837Z,100
2017-03-08T15:12:08.325Z,100
2017-03-08T15:12:48.892Z,100
2017-03-08T15:13:29.456Z,100
2017-03-08T15:14:10.068Z,95
2017-03-08T15:14:50.889Z,90
2017-03-08T15:15:32.143Z,85
2017-03-08T15:16:12.733Z,85
2017-03-08T15:16:53.686Z,85
2017-03-08T15:17:34.096Z,85
2017-03-08T15:20:02.785Z,90
2017-03-08T15:20:43.357Z,95
2017-03-08T15:21:23.740Z,90
2017-03-08T15:22:04.121Z,85
2017-03-08T15:22:44.580Z,85
2017-03-08T15:23:24.955Z,80
2017-03-08T15:24:05.408Z,75
2017-03-08T15:24:45.772Z,70
2017-03-08T15:25:27.624Z,70
2017-03-08T15:26:08.024Z,70
2017-03-08T15:26:48.585Z,70
2017-03-08T15:27:28.983Z,70
2017-03-08T15:28:09.402Z,70
2017-03-08T15:28:49.799Z,65
2017-03-08T15:29:30.248Z,65
2017-03-08T15:30:10.656Z,60
2017-03-08T15:30:51.025Z,55
2017-03-08T15:31:32.147Z,55
2017-03-08T15:32:12.922Z,55
2017-03-08T15:32:53.554Z,55
2017-03-08T15:33:34.139Z,60
2017-03-08T15:34:14.548Z,60
2017-03-08T15:36:47.626Z,70
2017-03-08T15:37:28.083Z,70
2017-03-08T15:38:08.491Z,70
2017-03-08T15:38:48.895Z,75
2017-03-08T15:39:29.254Z,80
2017-03-08T15:40:09.788Z,80
2017-03-08T15:40:50.231Z,75
2017-03-08T15:41:30.628Z,65
2017-03-08T15:42:11.076Z,60
2017-03-08T15:42:51.545Z,60
2017-03-08T15:43:32.195Z,60
2017-03-08T15:44:12.637Z,60
2017-03-08T15:44:53.116Z,60
2017-03-08T15:45:34.828Z,60
2017-03-08T15:46:15.464Z,65
2017-03-08T15:46:55.858Z,60
2017-03-08T15:47:36.547Z,65
2017-03-08T15:48:16.869Z,60
2017-03-08T15:48:57.661Z,60
2017-03-08T15:49:38.641Z,55
2017-03-08T15:50:20.620Z,50
2017-03-08T15:51:01.096Z,45
2017-03-08T15:51:41.694Z,45
2017-03-08T15:52:22.145Z,45
2017-03-08T15:53:03.519Z,45
2017-03-08T15:53:44.184Z,45
2017-03-08T15:54:26.697Z,45
2017-03-08T15:56:56.478Z,50
2017-03-08T15:57:36.867Z,50
2017-03-08T15:58:17.247Z,45
2017-03-08T15:58:57.645Z,45
2017-03-08T15:59:38.461Z,45
2017-03-08T16:00:18.658Z,45
2017-03-08T16:00:59.075Z,40
2017-03-08T16:01:39.505Z,35
2017-03-08T16:02:19.888Z,30
2017-03-08T16:03:00.266Z,30
2017-03-08T16:03:40.763Z,30
2017-03-08T16:04:21.149Z,25
2017-03-08T16:05:01.532Z,25
2017-03-08T16:05:41.944Z,25
2017-03-08T16:06:22.308Z,25
2017-03-08T16:07:02.714Z,25
2017-03-08T16:07:43.205Z,25
2017-03-08T16:08:23.598Z,25
2017-03-08T16:09:03.985Z,30
2017-03-08T16:09:44.424Z,30
2017-03-08T16:10:24.787Z,25
2017-03-08T16:11:05.245Z,30
2017-03-08T16:11:45.589Z,35
2017-03-08T16:12:25.980Z,40
2017-03-08T16:13:06.371Z,40
2017-03-08T16:13:46.729Z,35
2017-03-08T16:14:27.136Z,35
2017-03-08T16:15:07.556Z,35
2017-03-08T16:15:47.915Z,35
2017-03-08T16:16:28.354Z,35
2017-03-08T16:17:08.757Z,30
2017-03-08T16:17:49.166Z,30
2017-03-08T16:18:29.562Z,30
2017-03-08T16:19:09.987Z,30
2017-03-08T16:19:50.372Z,30
2017-03-08T16:20:30.814Z,30
2017-03-08T16:21:11.199Z,30
2017-03-08T16:21:51.636Z,25
2017-03-08T16:22:32.014Z,25
2017-03-08T16:23:12.432Z,25
2017-03-08T16:23:52.845Z,20
2017-03-08T16:24:33.281Z,20
2017-03-08T16:25:13.689Z,20
2017-03-08T16:25:54.155Z,15
2017-03-08T16:28:15.741Z,15
2017-03-08T16:28:56.167Z,15
2017-03-08T16:29:37.560Z,15
2017-03-08T16:30:19.028Z,15
2017-03-08T16:31:00.806Z,15
2017-03-08T16:31:41.326Z,15
2017-03-08T16:34:00.699Z,10
2017-03-08T16:34:41.073Z,10
2017-03-08T16:37:21.642Z,15
2017-03-08T16:38:02.470Z,15
2017-03-08T16:40:21.274Z,15
2017-03-08T16:41:01.692Z,10
2017-03-08T16:41:42.101Z,10
2017-03-08T16:42:22.509Z,10
2017-03-08T16:43:02.879Z,10
2017-03-08T16:43:43.280Z,10
2017-03-08T16:44:23.681Z,10
2017-03-08T16:45:04.116Z,10
2017-03-08T16:45:44.487Z,10
2017-03-08T16:46:24.914Z,10
2017-03-08T16:47:05.314Z,10
2017-03-08T16:47:45.724Z,10
2017-03-08T16:48:26.123Z,10
2017-03-08T16:49:06.541Z,10
2017-03-08T16:49:46.934Z,15
2017-03-08T16:50:27.394Z,15
2017-03-08T16:51:07.788Z,15
2017-03-08T16:51:48.163Z,10
2017-03-08T16:52:28.628Z,15
2017-03-08T16:53:08.998Z,15
2017-03-08T16:53:49.440Z,15
2017-03-08T16:54:29.841Z,15
2017-03-08T16:55:10.311Z,15
2017-03-08T16:55:50.700Z,15
2017-03-08T16:56:31.142Z,10
2017-03-08T16:57:11.498Z,10
2017-03-08T16:57:51.880Z,10
2017-03-08T16:58:32.307Z,10
2017-03-08T16:59:12.703Z,10
2017-03-08T16:59:53.128Z,5
2017-03-08T17:00:33.546Z,5
2017-03-08T17:01:13.964Z,5
2017-03-08T17:01:54.316Z,5
2017-03-08T17:02:34.785Z,5
2017-03-08T17:06:43.798Z,0
2017-03-08T17:07:24.237Z,0
2017-03-08T17:08:06.595Z,0
2017-03-08T17:08:47.835Z,0
2017-03-08T17:09:28.641Z,0
2017-03-08T17:10:09.593Z,0
2017-03-08T17:10:52.531Z,0
2017-03-08T17:11:34.252Z,0
2017-03-08T17:12:16.210Z,0
2017-03-08T17:12:57.234Z,0
2017-03-08T17:13:39.579Z,0
2017-03-08T17:14:20.651Z,0
2017-03-08T17:15:01.133Z,0
2017-03-08T17:15:41.757Z,0
2017-03-08T17:16:22.149Z,0
2017-03-08T17:17:04.554Z,0
2017-03-08T17:17:45.805Z,0
2017-03-08T17:18:26.196Z,0
2017-03-08T17:19:07.051Z,0
2017-03-08T17:19:48.546Z,0
2017-03-08T17:22:18.157Z,0
2017-03-08T17:23:00.987Z,0
2017-03-08T17:23:41.330Z,0
2017-03-08T17:24:21.861Z,0
2017-03-08T17:25:02.379Z,0
2017-03-08T17:25:43.729Z,0
2017-03-08T17:26:24.084Z,0
2017-03-08T17:27:06.505Z,0
2017-03-08T17:27:54.090Z,0
2017-03-08T17:28:34.492Z,0
2017-03-08T17:29:15.102Z,0
2017-03-08T17:31:38.033Z,0
2017-03-08T17:32:20.047Z,0
2017-03-08T17:33:02.471Z,0
2017-03-08T17:33:43.383Z,0
2017-03-08T17:34:23.847Z,0
2017-03-08T17:35:08.693Z,0
2017-03-08T17:35:48.758Z,0
2017-03-08T17:36:29.221Z,0
2017-03-08T17:37:11.498Z,0
2017-03-08T17:37:52.849Z,0
2017-03-08T17:38:38.116Z,0
2017-03-08T17:41:07.403Z,0
2017-03-08T17:41:47.834Z,0
2017-03-08T17:42:28.264Z,0
2017-03-08T17:43:09.476Z,0
2017-03-08T17:46:39.928Z,0
2017-03-08T17:47:20.351Z,0
2017-03-08T17:48:00.790Z,0
2017-03-08T17:48:41.172Z,0
2017-03-08T17:49:21.571Z,0
2017-03-08T17:50:02.044Z,0
2017-03-08T17:50:42.428Z,0
2017-03-08T17:51:22.843Z,0
2017-03-08T17:52:03.272Z,0
2017-03-08T17:52:43.667Z,0
2017-03-08T17:53:24.076Z,0
2017-03-08T17:54:04.458Z,0
2017-03-08T17:54:44.880Z,0
2017-03-08T17:55:25.235Z,0
2017-03-08T17:56:05.671Z,0
2017-03-08T17:56:46.033Z,0
2017-03-08T17:59:26.949Z,0
2017-03-08T18:00:08.657Z,0
2017-03-08T18:00:50.018Z,0
2017-03-08T18:01:33.244Z,0
2017-03-08T18:02:16.039Z,0
2017-03-08T18:02:56.899Z,0
2017-03-08T18:03:38.222Z,0
2017-03-08T18:04:20.568Z,0
2017-03-08T18:06:59.541Z,0
2017-03-08T18:07:41.231Z,0
2017-03-08T18:08:25.994Z,0
2017-03-08T18:09:08.868Z,0
2017-03-08T18:09:49.393Z,0
2017-03-08T18:10:29.835Z,0
2017-03-08T18:11:15.046Z,0
2017-03-08T18:13:34.392Z,0
2017-03-08T18:14:14.871Z,0
2017-03-08T18:14:57.137Z,0
2017-03-08T18:15:37.471Z,0
2017-03-08T18:16:21.761Z,0
2017-03-08T18:17:03.039Z,0
2017-03-08T18:17:45.940Z,0
2017-03-08T18:20:15.548Z,0
2017-03-08T18:20:56.589Z,0
2017-03-08T18:21:39.825Z,0
2017-03-08T18:22:22.766Z,0
2017-03-08T18:23:03.493Z,0
2017-03-08T18:23:44.853Z,0
2017-03-08T18:24:25.411Z,0
2017-03-08T18:28:10.016Z,0
2017-03-08T18:28:52.275Z,0
2017-03-08T18:29:36.818Z,0
2017-03-08T18:30:18.545Z,0
2017-03-08T18:30:58.915Z,0
2017-03-08T18:31:42.430Z,0
2017-03-08T18:32:22.851Z,0
2017-03-08T18:33:03.800Z,0
2017-03-08T18:33:44.190Z,0
2017-03-08T18:34:24.596Z,0
2017-03-08T18:35:09.631Z,0
2017-03-08T18:37:28.857Z,0
2017-03-08T18:38:09.519Z,0
2017-03-08T18:38:49.978Z,0
2017-03-08T18:39:33.243Z,0
2017-03-08T18:40:13.879Z,0
2017-03-08T18:41:11.302Z,0
2017-03-08T18:41:51.783Z,0
2017-03-08T18:42:32.212Z,0
2017-03-08T18:43:16.499Z,0
2017-03-08T18:43:58.093Z,0
2017-03-08T18:44:38.899Z,0
2017-03-08T18:47:20.294Z,0
2017-03-08T18:49:48.079Z,0